Airfield :
LOGIN :

Register | Disclaimer

   EN    FR    IT 

 










Legend :    VFR   Marginal VFR   IFR   Intensive IFR   Very Intensive IFR
Visi :
Ceiling :
>= 8 km
>= 3000ft
5 to 8 km
1000 to 3000 ft
1500m to 5 km
500 to 1000 ft
800 to 1500m
200 to 500 ft
< 800m
< 200 ft
Symbols :   Thunderstorms  Fog  Heavy snow  Heavy precipitations  Wind > 20 kt
SIGMETs :     Misc.  Thunderstorms  Icing  Turbulence  Mountain Waves  Volcanic Ashes






- Airport Elevation : 755 ft
- IATA code : DRS


EDDC - Dresden Klotzsche

CURRENT METAR :
  • 181720Z AUTO 19013KT 9999 VCSH FEW///CB 27/15 Q1011 TEMPO FM1750 24020G40KT TSGRRA BKN030CB

EXPIRED METARs :
  • 181650Z AUTO 16011KT 9999 -SHRA FEW///CB 27/16 Q1011 RESHRA TEMPO FM1730 24020G40KT TSGRRA BKN030CB
  • 181620Z AUTO 14009KT 120V180 CAVOK 28/15 Q1011 BECMG FM1730 24020G40KT 1500 TSGRRA BKN030CB
  • 181550Z AUTO 13009KT 090V180 CAVOK 28/15 Q1012 NOSIG
  • 181520Z AUTO 14009KT 110V170 CAVOK 28/15 Q1013
  • 181450Z AUTO 13007KT 090V200 CAVOK 28/15 Q1013 NOSIG
  • 181420Z AUTO 17009KT 130V220 CAVOK 28/15 Q1014 NOSIG
  • 181350Z AUTO VRB07KT CAVOK 28/15 Q1014 NOSIG
  • 181320Z AUTO VRB05KT CAVOK 27/14 Q1014 NOSIG
  • 181250Z AUTO VRB03KT CAVOK 26/13 Q1015 NOSIG

TAF TAF EDDC
Valid from the 18 at 18:00 until the 19 at 18:00 UTC


181700Z 1818/1918 16006KT 9999 SCT020CB
PROB40
TEMPO 1818/1820 24020G40KT 3000 TSRAGR SCT009CB BKN013
TEMPO 1821/1824 3500 TSRA
BECMG 1822/1824 22005KT SCT014
BECMG 1907/1909 29009KT
TEMPO 1913/1917 4000 RA
BECMG 1914/1916 BKN013



MET'MAP, your aeronautical weather chart ! - Copyright ORBIFLY December 2007 - Disclaimer

ORBIFLY MET'MAP TEAM :

Programming & Development : Alexandra Zaïnal
Original concept : Baudouin d'Aumeries
Technical & hardware support : Manuel Goepfert
Assistance : Marc-Olivier Méhu




SOURCES & CREDITS :

   NOAA